Airfield :
LOGIN :

Register | Disclaimer

   EN    FR    IT 

 










Legend :    VFR   Marginal VFR   IFR   Intensive IFR   Very Intensive IFR
Visi :
Ceiling :
>= 8 km
>= 3000ft
5 to 8 km
1000 to 3000 ft
1500m to 5 km
500 to 1000 ft
800 to 1500m
200 to 500 ft
< 800m
< 200 ft
Symbols :   Thunderstorms  Fog  Heavy snow  Heavy precipitations  Wind > 20 kt
SIGMETs :     Misc.  Thunderstorms  Icing  Turbulence  Mountain Waves  Volcanic Ashes







- Airport Elevation : 52 ft
- IATA code : RNN


EKRN - Bornholm Ronne

CURRENT METAR :
  • 230850Z 16010KT 9999 NSC 08/06 Q1003

EXPIRED METARs :
  • 230820Z 15012KT 9999 NSC 08/06 Q1003
  • 230750Z 16011KT 9999 NSC 08/06 Q1003
  • 230720Z 15011KT 9999 NSC 08/06 Q1003
  • 230650Z 15010KT 9999 NSC 07/05 Q1003
  • 230620Z 16010KT 9999 NSC 08/05 Q1003

TAF TAF EKRN
Valid from the 23 at 09:00 until the 23 at 18:00 UTC


230818Z 2309/2318 17018KT 9999 SCT020
No reported NOTAMs for that airfield.
2 SIGMETs reported for the Sweden FIR (ESAA) :
 
Severe turbulence
ESAA SIGMET 6 VALID 230900/231130 ESSA
ESAA SWEDEN FIR SEV TURB FCST WI N6404 E01240 - N6355 E01444 - N6822 E01957 - N6835 E01802 - N6404 E01240 SFC/FL070 MOV N 15KT NC=
Severe turbulence
ESAA SIGMET 5 VALID 230700/230930 ESSA
ESAA SWEDEN FIR SEV TURB FCST WI N6325 E01419 - N6242 E01808 - N6347 E02035 - N6445 E02112 - N6519 E02143 - N6603 E01708 - N6325 E01419 SFC/3000 MOV N 15KT NC=



MET'MAP, your aeronautical weather chart ! - Copyright ORBIFLY December 2007 - Disclaimer

ORBIFLY MET'MAP TEAM :

Programming & Development : Alexandra Zaïnal
Concept & Development : Baudouin d'Aumeries
Co-Development & Prog : Marc-Olivier Méhu
Technical & hardware support : Manuel Goepfert

Contact : metmap@orbifly.com




SOURCES & CREDITS :

   NOAA